Time;durP1;ratioP1;P1;durP2;ratioP2;P2;SDS_P1;SDS_P2;PMS_P1;PMS_P2;Temp;Humidity;BMP_temperature;BMP_pressure;BME280_temperature;BME280_humidity;BME280_pressure;Samples;Min_cycle;Max_cycle;Signal;HPM_P1;HPM_P2
2022/01/10 00:02:09;;;;;;;4.40;4.00;;;;;;;2.04;100.00;99721.22;5016943;28;20262;-49
2022/01/10 00:04:35;;;;;;;5.53;4.17;;;;;;;2.07;100.00;99717.88;5021485;28;20196;-49
2022/01/10 00:07:00;;;;;;;4.10;3.23;;;;;;;2.08;100.00;99722.16;5023511;28;20207;-50
2022/01/10 00:09:25;;;;;;;4.10;3.07;;;;;;;2.10;100.00;99728.16;5016099;28;20196;-50
2022/01/10 00:11:52;;;;;;;3.97;3.30;;;;;;;2.12;100.00;99741.75;5017065;28;20216;-50
2022/01/10 00:14:17;;;;;;;3.47;3.13;;;;;;;2.14;100.00;99737.56;5023255;28;20222;-50
2022/01/10 00:16:43;;;;;;;3.57;3.03;;;;;;;2.17;100.00;99744.41;5020540;28;20637;-50
2022/01/10 00:19:08;;;;;;;4.50;3.20;;;;;;;2.19;100.00;99746.16;5018502;28;20192;-50
2022/01/10 00:21:33;;;;;;;5.23;3.63;;;;;;;2.19;100.00;99742.75;5026949;28;20679;-50
2022/01/10 00:23:59;;;;;;;4.07;3.20;;;;;;;2.18;100.00;99741.88;5020906;28;20746;-49
2022/01/10 00:26:24;;;;;;;4.77;4.03;;;;;;;2.17;100.00;99739.31;5026738;28;20191;-50
2022/01/10 00:28:50;;;;;;;3.73;3.27;;;;;;;2.15;100.00;99746.94;5018308;28;20236;-52
2022/01/10 00:31:15;;;;;;;3.67;3.33;;;;;;;2.13;100.00;99748.59;5015889;28;20815;-50
2022/01/10 00:33:41;;;;;;;5.37;3.93;;;;;;;2.12;100.00;99749.41;5019805;28;20278;-50
2022/01/10 00:36:06;;;;;;;3.57;3.27;;;;;;;2.10;100.00;99751.13;5019078;28;20188;-50
2022/01/10 00:38:32;;;;;;;4.73;3.60;;;;;;;2.09;100.00;99755.34;5019199;28;20290;-49
2022/01/10 00:40:59;;;;;;;4.30;3.67;;;;;;;2.09;100.00;99762.16;5020620;28;20526;-50
2022/01/10 00:43:33;;;;;;;4.20;3.53;;;;;;;2.07;100.00;99759.56;5020902;28;20261;-50
2022/01/10 00:46:01;;;;;;;6.67;4.57;;;;;;;2.05;100.00;99761.22;5018956;28;20922;-49
2022/01/10 00:48:26;;;;;;;5.20;4.43;;;;;;;2.03;100.00;99760.38;5016126;28;20219;-50
2022/01/10 00:50:51;;;;;;;5.57;4.77;;;;;;;2.01;100.00;99768.81;5023477;28;20195;-50
2022/01/10 00:53:19;;;;;;;5.20;4.67;;;;;;;1.97;100.00;99763.66;5018522;28;20198;-50
2022/01/10 00:55:45;;;;;;;5.90;5.23;;;;;;;1.93;100.00;99769.56;5019272;28;20192;-50
2022/01/10 00:58:10;;;;;;;6.50;5.57;;;;;;;1.92;100.00;99780.59;5025738;28;20207;-50
2022/01/10 01:00:35;;;;;;;6.60;5.47;;;;;;;1.91;100.00;99785.66;5020411;28;20219;-50
2022/01/10 01:03:02;;;;;;;6.27;5.67;;;;;;;1.91;100.00;99796.72;5012929;28;20676;-49
2022/01/10 01:05:29;;;;;;;6.27;5.67;;;;;;;1.91;100.00;99791.63;5022765;28;20203;-50
2022/01/10 01:07:54;;;;;;;9.20;5.77;;;;;;;1.94;100.00;99795.91;5015427;28;20238;-49
2022/01/10 01:13:19;;;;;;;6.27;5.67;;;;;;;2.01;100.00;99819.84;5012634;28;20196;-50
2022/01/10 01:15:57;;;;;;;7.73;5.73;;;;;;;2.02;100.00;99807.13;5016847;28;20467;-50
2022/01/10 01:24:04;;;;;;;5.43;4.93;;;;;;;2.10;100.00;99822.59;5017253;28;20194;-49
2022/01/10 01:26:32;;;;;;;5.83;5.30;;;;;;;2.11;100.00;99824.31;5026062;28;20417;-49
2022/01/10 01:28:58;;;;;;;6.17;5.63;;;;;;;2.13;100.00;99830.28;5020074;28;21181;-50
2022/01/10 01:31:24;;;;;;;6.13;5.03;;;;;;;2.13;100.00;99826.06;5020284;28;20192;-50
2022/01/10 01:33:49;;;;;;;5.73;4.87;;;;;;;2.13;100.00;99832.84;5016688;28;20203;-50
2022/01/10 01:36:24;;;;;;;6.17;5.43;;;;;;;2.13;100.00;99836.25;5023355;28;20187;-51
2022/01/10 01:38:50;;;;;;;5.43;4.87;;;;;;;2.16;100.00;99839.72;5023686;28;20210;-50
2022/01/10 01:43:46;;;;;;;5.40;4.90;;;;;;;2.16;100.00;99845.66;5022660;28;20772;-50
2022/01/10 01:46:12;;;;;;;6.73;5.00;;;;;;;2.16;100.00;99852.47;5024731;28;20184;-50
2022/01/10 01:48:37;;;;;;;5.17;4.67;;;;;;;2.16;100.00;99858.41;5019940;28;20219;-51
2022/01/10 01:51:03;;;;;;;7.20;4.67;;;;;;;2.17;100.00;99859.31;5015481;28;20188;-50
2022/01/10 01:53:30;;;;;;;6.50;4.60;;;;;;;2.18;100.00;99871.25;5022726;28;20199;-50
2022/01/10 01:55:56;;;;;;;4.37;3.97;;;;;;;2.16;100.00;99873.75;5019131;28;20646;-50
2022/01/10 01:58:22;;;;;;;4.70;4.23;;;;;;;2.14;100.00;99875.41;5015077;28;20215;-50
2022/01/10 02:00:48;;;;;;;5.23;4.30;;;;;;;2.12;100.00;99875.38;5011353;28;20204;-50
2022/01/10 02:03:13;;;;;;;4.33;3.93;;;;;;;2.07;100.00;99869.31;5022549;28;20322;-50
2022/01/10 02:05:38;;;;;;;4.57;4.17;;;;;;;2.06;100.00;99874.41;5018127;28;20199;-50
2022/01/10 02:08:04;;;;;;;5.40;3.97;;;;;;;2.03;100.00;99884.56;5021453;28;20751;-50
2022/01/10 02:10:29;;;;;;;4.30;3.90;;;;;;;2.01;100.00;99887.09;5015862;28;20190;-50
2022/01/10 02:12:55;;;;;;;4.17;3.77;;;;;;;1.97;100.00;99881.03;5018853;28;20188;-50
2022/01/10 02:15:35;;;;;;;5.30;4.23;;;;;;;1.95;100.00;99885.28;5016884;28;20652;-50
2022/01/10 02:18:01;;;;;;;5.57;4.07;;;;;;;1.91;100.00;99883.50;5014871;28;20214;-50
2022/01/10 02:20:31;;;;;;;5.30;4.37;;;;;;;1.90;100.00;99886.88;5024257;28;20212;-51
2022/01/10 02:22:57;;;;;;;5.33;4.40;;;;;;;1.90;100.00;99898.75;5023581;28;20234;-50
2022/01/10 02:25:23;;;;;;;5.80;4.70;;;;;;;1.89;100.00;99903.00;5014792;28;20593;-50
2022/01/10 02:27:49;;;;;;;5.43;4.93;;;;;;;1.89;100.00;99902.16;5018370;28;20234;-50
2022/01/10 02:30:15;;;;;;;4.93;4.43;;;;;;;1.91;100.00;99908.13;5015794;28;20194;-50
2022/01/10 02:32:40;;;;;;;4.70;4.10;;;;;;;1.93;100.00;99906.47;5014880;28;20258;-50
2022/01/10 02:35:17;;;;;;;4.90;4.10;;;;;;;1.95;100.00;99907.38;5015726;28;20192;-50
2022/01/10 02:37:43;;;;;;;6.83;4.97;;;;;;;1.96;100.00;99911.66;5013668;28;20214;-51
2022/01/10 02:40:13;;;;;;;5.17;4.20;;;;;;;1.97;100.00;99914.22;5013832;28;20208;-50
2022/01/10 02:42:39;;;;;;;5.37;4.87;;;;;;;1.98;100.00;99918.50;5017794;28;20279;-50
2022/01/10 02:45:05;;;;;;;6.43;4.87;;;;;;;1.98;100.00;99918.50;5021237;28;20279;-50
2022/01/10 02:47:31;;;;;;;5.63;4.97;;;;;;;2.00;100.00;99917.66;5017948;28;20560;-50
2022/01/10 02:49:56;;;;;;;6.13;5.00;;;;;;;1.98;100.00;99918.50;5012876;28;20203;-51
2022/01/10 02:52:25;;;;;;;6.40;5.80;;;;;;;2.00;100.00;99923.66;5015817;28;20619;-50
2022/01/10 02:54:50;;;;;;;7.47;5.10;;;;;;;2.01;100.00;99930.47;5023652;28;20252;-50
2022/01/10 02:57:15;;;;;;;5.43;4.93;;;;;;;2.05;100.00;99936.50;5016346;28;20216;-50
2022/01/10 02:59:42;;;;;;;5.73;5.13;;;;;;;2.07;100.00;99932.28;5016154;28;20218;-50
2022/01/10 03:02:09;;;;;;;7.63;6.10;;;;;;;2.10;100.00;99947.69;5014183;28;20191;-49
2022/01/10 03:04:34;;;;;;;5.30;4.80;;;;;;;2.12;100.00;99948.53;5022754;28;20199;-50
2022/01/10 03:06:59;;;;;;;7.10;5.37;;;;;;;2.12;100.00;99946.88;5014651;28;20584;-50
2022/01/10 03:09:25;;;;;;;6.30;5.33;;;;;;;2.13;100.00;99956.25;5021853;28;20266;-50
2022/01/10 03:11:50;;;;;;;6.73;5.20;;;;;;;2.13;100.00;99946.03;5015614;28;20810;-50
2022/01/10 03:14:17;;;;;;;5.77;5.27;;;;;;;2.14;100.00;99959.66;5024798;28;20230;-50
2022/01/10 03:16:42;;;;;;;5.93;5.33;;;;;;;2.13;100.00;99961.34;5014290;28;20235;-50
2022/01/10 03:19:08;;;;;;;5.57;5.07;;;;;;;2.14;100.00;99974.97;5014244;28;20271;-50
2022/01/10 03:21:35;;;;;;;5.80;5.30;;;;;;;2.13;100.00;99975.78;5016777;28;20227;-50
2022/01/10 03:24:01;;;;;;;6.40;5.20;;;;;;;2.12;100.00;99974.06;5024397;28;20660;-50
2022/01/10 03:26:27;;;;;;;5.83;5.23;;;;;;;2.11;100.00;99980.88;5019017;28;20277;-50
2022/01/10 03:28:53;;;;;;;6.07;5.47;;;;;;;2.11;100.00;99985.13;5019700;28;20234;-50
2022/01/10 03:31:19;;;;;;;6.20;5.70;;;;;;;2.09;100.00;99981.69;5024325;28;20194;-50
2022/01/10 03:33:44;;;;;;;6.10;5.60;;;;;;;2.08;100.00;99988.47;5019938;28;20184;-49
2022/01/10 03:36:10;;;;;;;6.63;5.80;;;;;;;2.09;100.00;99992.75;5018587;28;20195;-50
2022/01/10 03:38:35;;;;;;;6.43;5.57;;;;;;;2.10;100.00;100002.13;5025537;28;20207;-50
2022/01/10 03:41:01;;;;;;;6.00;5.50;;;;;;;2.10;100.00;99998.72;5027561;28;20211;-50
2022/01/10 03:43:26;;;;;;;6.60;6.00;;;;;;;2.10;100.00;100008.94;5022506;28;20195;-51
2022/01/10 03:45:52;;;;;;;6.50;5.90;;;;;;;2.12;100.00;100013.25;5016722;28;20266;-50
2022/01/10 03:48:17;;;;;;;6.70;6.10;;;;;;;2.12;100.00;100012.34;5019483;28;20325;-50
2022/01/10 03:50:43;;;;;;;7.17;6.57;;;;;;;2.13;100.00;100014.97;5015302;28;20574;-50
2022/01/10 03:53:08;;;;;;;7.83;7.00;;;;;;;2.15;100.00;100016.69;5019380;28;20253;-50
2022/01/10 03:55:34;;;;;;;7.80;7.10;;;;;;;2.15;100.00;100019.25;5027626;28;20187;-49
2022/01/10 03:57:59;;;;;;;8.50;7.60;;;;;;;2.16;100.00;100010.75;5016009;28;20208;-50
2022/01/10 04:00:24;;;;;;;7.87;6.80;;;;;;;2.17;100.00;100021.00;5017802;28;20212;-50
2022/01/10 04:02:56;;;;;;;8.50;7.60;;;;;;;2.17;100.00;100020.16;5014253;28;20307;-51
2022/01/10 04:05:22;;;;;;;8.00;7.10;;;;;;;2.19;100.00;100033.81;5025485;28;20557;-50
2022/01/10 04:07:47;;;;;;;8.17;7.37;;;;;;;2.18;100.00;100034.63;5012791;28;20207;-50
2022/01/10 04:10:13;;;;;;;7.57;6.87;;;;;;;2.18;100.00;100038.03;5020061;28;20184;-50
2022/01/10 04:12:38;;;;;;;7.90;7.20;;;;;;;2.17;100.00;100041.41;5021672;28;20191;-50
2022/01/10 04:15:04;;;;;;;8.23;7.43;;;;;;;2.17;100.00;100043.97;5015879;28;20250;-50
2022/01/10 04:17:30;;;;;;;9.07;8.00;;;;;;;2.17;100.00;100043.13;5017667;28;20234;-50
2022/01/10 04:19:55;;;;;;;8.53;7.70;;;;;;;2.16;100.00;100051.59;5015382;28;20208;-50
2022/01/10 04:22:21;;;;;;;7.93;7.23;;;;;;;2.13;100.00;100042.16;5024897;28;20203;-50
2022/01/10 04:24:47;;;;;;;8.20;7.50;;;;;;;2.13;100.00;100050.72;5016303;28;20653;-50
2022/01/10 04:27:12;;;;;;;8.43;7.63;;;;;;;2.15;100.00;100052.44;5020531;28;20288;-50
2022/01/10 04:29:38;;;;;;;7.93;7.23;;;;;;;2.13;100.00;100057.47;5019242;28;20191;-49
2022/01/10 04:32:04;;;;;;;7.87;7.17;;;;;;;2.13;100.00;100052.38;5015759;28;20196;-50
2022/01/10 04:34:29;;;;;;;7.57;6.87;;;;;;;2.13;100.00;100063.47;5026346;28;20179;-50
2022/01/10 04:36:55;;;;;;;8.60;7.70;;;;;;;2.14;100.00;100069.44;5017466;28;20675;-51
2022/01/10 04:39:20;;;;;;;7.90;7.10;;;;;;;2.16;100.00;100074.59;5020561;28;20261;-50
2022/01/10 04:41:45;;;;;;;8.13;7.43;;;;;;;2.16;100.00;100074.59;5014712;28;20739;-50
2022/01/10 04:44:11;;;;;;;9.50;8.50;;;;;;;2.15;100.00;100081.38;5024886;28;20203;-50
2022/01/10 04:46:36;;;;;;;10.50;9.33;;;;;;;2.14;100.00;100082.19;5014585;28;20661;-51
2022/01/10 04:49:02;;;;;;;9.20;8.30;;;;;;;2.12;100.00;100086.41;5012812;28;20219;-50
2022/01/10 04:51:29;;;;;;;9.03;8.23;;;;;;;2.10;100.00;100088.94;5014248;28;20198;-50
2022/01/10 04:53:55;;;;;;;8.87;7.97;;;;;;;2.12;100.00;100091.50;5018769;28;20202;-50
2022/01/10 04:56:21;;;;;;;9.43;8.53;;;;;;;2.12;100.00;100094.94;5021347;28;20728;-50
2022/01/10 04:58:48;;;;;;;9.30;8.23;;;;;;;2.12;100.00;100099.16;5022646;28;20219;-50
2022/01/10 05:01:14;;;;;;;9.87;8.87;;;;;;;2.13;100.00;100103.44;5017819;28;20223;-50
2022/01/10 05:03:40;;;;;;;10.00;9.00;;;;;;;2.15;100.00;100104.34;5015501;28;20719;-50
2022/01/10 05:06:05;;;;;;;8.93;8.03;;;;;;;2.16;100.00;100112.88;5011292;28;20208;-50
2022/01/10 05:08:31;;;;;;;9.43;8.47;;;;;;;2.18;100.00;100119.75;5012505;28;20248;-51
2022/01/10 05:10:57;;;;;;;9.40;8.50;;;;;;;2.21;100.00;100130.03;5017618;28;20188;-50
2022/01/10 05:13:23;;;;;;;9.17;8.27;;;;;;;2.24;100.00;100134.31;5018534;28;20192;-50
2022/01/10 05:15:50;;;;;;;8.80;8.00;;;;;;;2.25;100.00;100133.50;5012400;28;20198;-50
2022/01/10 05:18:17;;;;;;;10.30;8.67;;;;;;;2.25;100.00;100136.06;5011994;28;20207;-50
2022/01/10 05:20:42;;;;;;;9.07;8.03;;;;;;;2.25;100.00;100133.50;5015236;28;20483;-50
2022/01/10 05:23:08;;;;;;;9.20;8.30;;;;;;;2.22;100.00;100136.84;5015828;28;20187;-50
2022/01/10 05:25:36;;;;;;;9.33;8.43;;;;;;;2.22;100.00;100146.19;5012798;28;20679;-50
2022/01/10 05:28:06;;;;;;;9.10;8.20;;;;;;;2.21;100.00;100150.44;5016001;28;20212;-50
2022/01/10 05:30:31;;;;;;;8.97;8.07;;;;;;;2.20;100.00;100156.38;5022015;28;20191;-50
2022/01/10 05:32:57;;;;;;;8.90;8.10;;;;;;;2.22;100.00;100161.50;5015512;28;20188;-50
2022/01/10 05:35:22;;;;;;;8.97;8.17;;;;;;;2.22;100.00;100162.41;5012781;28;20198;-51
2022/01/10 05:37:48;;;;;;;8.77;7.90;;;;;;;2.24;100.00;100170.97;5014320;28;20286;-50
2022/01/10 05:40:14;;;;;;;9.17;8.37;;;;;;;2.24;100.00;100175.19;5017998;28;20675;-50
2022/01/10 05:42:40;;;;;;;8.67;7.77;;;;;;;2.24;100.00;100177.72;5018255;28;20195;-50
2022/01/10 05:45:05;;;;;;;9.17;8.27;;;;;;;2.24;100.00;100182.84;5023540;28;20710;-50
2022/01/10 05:47:39;;;;;;;8.90;8.00;;;;;;;2.24;100.00;100190.50;5027109;28;20211;-50
2022/01/10 05:50:06;;;;;;;8.43;7.70;;;;;;;2.23;100.00;100192.22;5011138;28;20184;-50
2022/01/10 05:52:31;;;;;;;9.20;8.30;;;;;;;2.23;100.00;100196.44;5017566;28;20548;-50
2022/01/10 05:54:57;;;;;;;10.00;9.00;;;;;;;2.24;100.00;100193.06;5015373;28;20196;-50
2022/01/10 05:57:22;;;;;;;9.63;8.73;;;;;;;2.24;100.00;100200.72;5016890;28;20288;-50
2022/01/10 05:59:47;;;;;;;8.57;7.77;;;;;;;2.25;100.00;100220.31;5013969;28;20928;-50
2022/01/10 06:02:13;;;;;;;8.23;7.43;;;;;;;2.22;100.00;100212.56;5015494;28;20275;-50
2022/01/10 06:04:38;;;;;;;8.57;7.77;;;;;;;2.21;100.00;100221.94;5018772;28;20194;-50
2022/01/10 06:07:03;;;;;;;8.57;7.77;;;;;;;2.21;100.00;100227.06;5019510;28;20212;-50
2022/01/10 06:09:31;;;;;;;8.60;7.80;;;;;;;2.21;100.00;100229.59;5021754;28;20183;-51
2022/01/10 06:11:56;;;;;;;9.07;8.27;;;;;;;2.21;100.00;100234.72;5023394;28;20224;-50
2022/01/10 06:14:22;;;;;;;8.53;7.60;;;;;;;2.23;100.00;100242.41;5023868;28;20218;-50
2022/01/10 06:16:47;;;;;;;8.93;8.10;;;;;;;2.24;100.00;100244.13;5020147;28;20278;-50
2022/01/10 06:19:13;;;;;;;8.47;7.67;;;;;;;2.22;100.00;100245.78;5023768;28;20624;-50
2022/01/10 06:21:40;;;;;;;7.80;7.13;;;;;;;2.22;100.00;100249.22;5013974;28;20215;-50
2022/01/10 06:24:06;;;;;;;8.43;7.63;;;;;;;2.20;100.00;100255.97;5025655;28;21057;-50
2022/01/10 06:26:32;;;;;;;8.20;7.50;;;;;;;2.20;100.00;100262.75;5019254;28;20274;-50
2022/01/10 06:28:58;;;;;;;9.27;8.07;;;;;;;2.19;100.00;100278.91;5023210;28;20219;-50
2022/01/10 06:31:23;;;;;;;7.97;7.17;;;;;;;2.19;100.00;100269.56;5020266;28;20633;-50
2022/01/10 06:33:48;;;;;;;8.93;8.03;;;;;;;2.18;100.00;100280.59;5021912;28;20274;-50
2022/01/10 06:36:14;;;;;;;10.60;8.83;;;;;;;2.18;100.00;100284.84;5015439;28;20191;-50
2022/01/10 06:38:39;;;;;;;11.33;9.93;;;;;;;2.16;100.00;100289.91;5017331;28;20322;-50
2022/01/10 06:41:05;;;;;;;11.77;9.63;;;;;;;2.16;100.00;100291.59;5017511;28;20560;-51
2022/01/10 06:43:31;;;;;;;11.67;10.10;;;;;;;2.13;100.00;100298.34;5022240;28;20191;-50
2022/01/10 06:45:57;;;;;;;10.33;9.20;;;;;;;2.13;100.00;100298.34;5017059;28;20188;-50
2022/01/10 06:48:22;;;;;;;9.20;8.30;;;;;;;2.13;100.00;100307.69;5022463;28;20216;-51
2022/01/10 06:50:48;;;;;;;9.50;8.50;;;;;;;2.12;100.00;100309.38;5019728;28;20256;-51
2022/01/10 06:53:17;;;;;;;11.20;9.97;;;;;;;2.12;100.00;100318.72;5017432;28;20214;-50
2022/01/10 06:55:43;;;;;;;12.13;10.90;;;;;;;2.10;100.00;100321.25;5011096;28;20267;-50
2022/01/10 06:58:08;;;;;;;12.40;10.50;;;;;;;2.08;100.00;100324.59;5015173;28;20348;-50
2022/01/10 07:00:34;;;;;;;11.20;10.07;;;;;;;2.06;100.00;100329.63;5022073;28;20266;-50
2022/01/10 07:03:00;;;;;;;10.63;9.13;;;;;;;2.07;100.00;100333.91;5020412;28;20725;-50
2022/01/10 07:05:25;;;;;;;9.73;8.83;;;;;;;2.08;100.00;100337.34;5016256;28;20191;-50
2022/01/10 07:07:50;;;;;;;9.63;8.73;;;;;;;2.07;100.00;100349.25;5023587;28;20775;-50
2022/01/10 07:10:16;;;;;;;11.07;9.97;;;;;;;2.08;100.00;100350.13;5011965;28;20192;-51
2022/01/10 07:12:41;;;;;;;11.30;10.13;;;;;;;2.09;100.00;100357.81;5013850;28;20219;-50
2022/01/10 07:15:07;;;;;;;10.93;9.83;;;;;;;2.12;100.00;100367.22;5032826;28;20245;-51
2022/01/10 07:17:33;;;;;;;11.30;9.97;;;;;;;2.12;100.00;100374.88;5022968;28;20355;-50
2022/01/10 07:19:59;;;;;;;11.80;10.60;;;;;;;2.12;100.00;100373.22;5026080;28;20216;-50
2022/01/10 07:22:24;;;;;;;10.30;9.30;;;;;;;2.15;100.00;100390.28;5013572;28;21185;-50
2022/01/10 07:24:50;;;;;;;10.07;9.17;;;;;;;2.19;100.00;100399.78;5011552;28;20202;-50
2022/01/10 07:27:15;;;;;;;11.40;10.13;;;;;;;2.22;100.00;100394.75;5025413;28;20215;-50
2022/01/10 07:29:41;;;;;;;11.27;10.10;;;;;;;2.26;100.00;100416.13;5024703;28;20196;-50
2022/01/10 07:32:07;;;;;;;12.13;10.93;;;;;;;2.27;100.00;100420.41;5027550;28;20230;-50
2022/01/10 07:34:32;;;;;;;10.47;9.43;;;;;;;2.28;100.00;100423.00;5029139;28;20195;-50
2022/01/10 07:36:58;;;;;;;9.77;8.77;;;;;;;2.32;100.00;100429.06;5026946;28;20217;-50
2022/01/10 07:39:23;;;;;;;9.20;8.23;;;;;;;2.37;100.00;100435.16;5028570;28;20894;-51
2022/01/10 07:41:48;;;;;;;9.90;9.00;;;;;;;2.41;100.00;100438.69;5029252;28;20250;-50
2022/01/10 07:44:14;;;;;;;11.23;10.03;;;;;;;2.45;100.00;100450.69;5027011;28;20188;-50
2022/01/10 07:46:39;;;;;;;9.63;8.73;;;;;;;2.49;100.00;100446.53;5027727;28;20294;-49
2022/01/10 07:49:05;;;;;;;10.80;9.40;;;;;;;2.52;100.00;100457.69;5016911;28;20235;-52
2022/01/10 07:51:30;;;;;;;12.27;11.00;;;;;;;2.53;100.00;100468.78;5017011;28;20196;-50
2022/01/10 07:53:56;;;;;;;12.10;10.90;;;;;;;2.50;100.00;100468.69;5024005;28;20203;-50
2022/01/10 07:56:21;;;;;;;12.07;10.97;;;;;;;2.50;100.00;100464.44;5019001;28;20200;-50
2022/01/10 07:58:50;;;;;;;12.20;11.10;;;;;;;2.51;100.00;100473.84;5028222;28;20208;-50
2022/01/10 08:01:16;;;;;;;13.70;11.63;;;;;;;2.52;100.00;100478.13;5018493;28;20290;-50
2022/01/10 08:03:41;;;;;;;12.27;11.03;;;;;;;2.54;100.00;100471.38;5023231;28;20760;-50
2022/01/10 08:06:06;;;;;;;13.10;11.73;;;;;;;2.57;100.00;100474.00;5024413;28;20681;-50
2022/01/10 08:08:33;;;;;;;12.20;11.00;;;;;;;2.62;100.00;100475.81;5021463;28;20211;-50
2022/01/10 08:10:59;;;;;;;12.93;10.60;;;;;;;2.67;100.00;100474.25;5022390;28;20208;-50
2022/01/10 08:13:24;;;;;;;13.77;11.90;;;;;;;2.72;100.00;100478.66;5029057;28;20199;-50
2022/01/10 08:15:50;;;;;;;14.90;13.40;;;;;;;2.79;100.00;100479.69;5028404;28;20278;-50
2022/01/10 08:18:17;;;;;;;13.20;11.90;;;;;;;2.84;100.00;100490.91;5029301;28;20706;-50
2022/01/10 08:20:42;;;;;;;13.00;11.70;;;;;;;2.87;100.00;100493.50;5035105;28;20621;-50
2022/01/10 08:23:08;;;;;;;11.33;10.30;;;;;;;2.92;100.00;100495.34;5035084;28;20190;-50
2022/01/10 08:25:34;;;;;;;10.03;9.13;;;;;;;2.98;100.00;100496.34;5014224;28;20211;-50
2022/01/10 08:27:59;;;;;;;13.03;10.53;;;;;;;3.07;100.00;100499.97;5025431;28;20295;-50
2022/01/10 08:30:25;;;;;;;11.63;10.40;;;;;;;3.15;100.00;100509.59;5018101;28;20618;-50
2022/01/10 08:32:50;;;;;;;11.10;10.10;;;;;;;3.23;100.00;100520.00;5032806;28;20190;-50
2022/01/10 08:35:18;;;;;;;10.90;9.90;;;;;;;3.31;100.00;100522.75;5024827;28;20195;-50
2022/01/10 08:37:44;;;;;;;13.10;11.73;;;;;;;3.38;100.00;100529.72;5022907;28;20215;-50
2022/01/10 08:40:11;;;;;;;13.83;12.47;;;;;;;3.43;100.00;100533.28;5025643;28;20265;-50
2022/01/10 08:42:37;;;;;;;14.13;12.80;;;;;;;3.48;100.00;100538.50;5017274;28;20310;-50
2022/01/10 08:45:03;;;;;;;12.70;11.40;;;;;;;3.50;100.00;100544.53;5020119;28;20212;-50
2022/01/10 08:47:29;;;;;;;12.73;11.53;;;;;;;3.55;100.00;100542.94;5021662;28;20215;-50
2022/01/10 08:49:55;;;;;;;12.80;11.40;;;;;;;3.63;100.00;100553.38;5013823;28;20598;-50
2022/01/10 08:52:21;;;;;;;12.77;11.47;;;;;;;3.70;100.00;100551.81;5020172;28;20258;-50
2022/01/10 08:54:49;;;;;;;13.10;11.73;;;;;;;3.72;100.00;100551.00;5023370;28;20192;-50
2022/01/10 08:57:16;;;;;;;11.70;10.60;;;;;;;3.76;100.00;100560.50;5023917;28;20208;-50
2022/01/10 08:59:42;;;;;;;11.60;10.50;;;;;;;3.79;100.00;100559.69;5026117;28;20254;-50
2022/01/10 09:02:07;;;;;;;11.73;10.50;;;;;;;3.81;100.00;100566.56;5023846;28;20656;-50
2022/01/10 09:04:33;;;;;;;12.47;11.27;;;;;;;3.81;100.00;100575.97;5021012;28;20188;-50
2022/01/10 09:07:00;;;;;;;12.07;10.63;;;;;;;3.78;100.00;100573.31;5025558;28;20199;-50
2022/01/10 09:09:26;;;;;;;11.10;10.10;;;;;;;3.76;100.00;100570.75;5026767;28;20197;-50
2022/01/10 09:11:51;;;;;;;12.50;11.30;;;;;;;3.77;100.00;100577.59;5023630;28;20187;-50
2022/01/10 09:14:17;;;;;;;11.13;10.03;;;;;;;3.79;100.00;100578.47;5020665;28;20192;-50
2022/01/10 09:16:43;;;;;;;11.37;10.27;;;;;;;3.85;100.00;100590.56;5026279;28;20192;-50
2022/01/10 09:19:09;;;;;;;11.90;10.73;;;;;;;3.92;100.00;100596.69;5026107;28;20557;-50
2022/01/10 09:21:34;;;;;;;12.90;11.60;;;;;;;3.99;100.00;100592.59;5020507;28;20207;-50
2022/01/10 09:24:00;;;;;;;13.17;11.87;;;;;;;4.04;100.00;100596.09;5024334;28;20183;-50
2022/01/10 09:26:26;;;;;;;15.30;12.93;;;;;;;4.10;100.00;100593.69;5025741;28;20519;-51
2022/01/10 09:28:53;;;;;;;12.47;11.17;;;;;;;4.14;100.00;100597.16;5024246;28;20212;-50
2022/01/10 09:31:19;;;;;;;13.73;12.43;;;;;;;4.19;100.00;100614.38;5022052;28;20634;-50
2022/01/10 09:33:51;;;;;;;14.13;12.70;;;;;;;4.23;100.00;100616.19;5024537;28;20183;-50
2022/01/10 09:36:17;;;;;;;15.23;13.63;;;;;;;4.25;100.00;100621.31;5017983;28;20638;-50
2022/01/10 09:38:42;;;;;;;15.47;13.87;;;;;;;4.25;100.00;100629.00;5026626;28;20616;-50
2022/01/10 09:41:08;;;;;;;15.30;13.33;;;;;;;4.24;100.00;100629.84;5016713;28;20212;-50
2022/01/10 09:43:34;;;;;;;16.87;15.13;;;;;;;4.23;100.00;100630.69;5025556;28;20214;-50
2022/01/10 09:46:00;;;;;;;16.67;14.97;;;;;;;4.17;100.00;100628.00;5017266;28;20202;-50
2022/01/10 09:48:25;;;;;;;17.47;15.67;;;;;;;4.17;100.00;100631.41;5025324;28;20215;-50
2022/01/10 09:50:51;;;;;;;16.03;14.43;;;;;;;4.23;100.00;100648.63;5021345;28;20192;-50
2022/01/10 09:53:18;;;;;;;15.47;13.73;;;;;;;4.27;100.00;100642.72;5016050;28;20274;-50
2022/01/10 09:55:44;;;;;;;14.87;13.33;;;;;;;4.27;100.00;100645.28;5023218;28;20230;-50
2022/01/10 09:58:10;;;;;;;13.60;12.30;;;;;;;4.27;100.00;100643.59;5025009;28;20208;-50
2022/01/10 10:00:36;;;;;;;13.73;12.30;;;;;;;4.27;100.00;100643.59;5017366;28;20677;-50
2022/01/10 10:03:02;;;;;;;14.43;13.03;;;;;;;4.21;100.00;100647.72;5022901;28;20253;-50
2022/01/10 10:05:27;;;;;;;13.63;12.37;;;;;;;4.18;100.00;100653.63;5028836;28;20229;-50
2022/01/10 10:07:53;;;;;;;12.00;10.77;;;;;;;4.13;100.00;100652.69;5020221;28;20595;-50
2022/01/10 10:10:20;;;;;;;12.97;11.60;;;;;;;4.07;100.00;100665.31;5021018;28;20184;-50
2022/01/10 10:12:48;;;;;;;13.97;12.30;;;;;;;4.04;100.00;100668.69;5027931;28;20183;-50
2022/01/10 10:15:16;;;;;;;16.13;14.43;;;;;;;4.01;100.00;100676.28;5018721;28;20187;-50
2022/01/10 10:17:42;;;;;;;16.43;14.73;;;;;;;4.00;100.00;100676.28;5013898;28;20692;-51
2022/01/10 10:20:10;;;;;;;15.90;14.20;;;;;;;3.92;100.00;100681.22;5026058;28;20218;-50
2022/01/10 10:22:39;;;;;;;14.60;13.07;;;;;;;3.83;100.00;100686.97;5029597;28;20188;-50
2022/01/10 10:25:07;;;;;;;13.17;11.77;;;;;;;3.80;100.00;100680.03;5022234;28;20238;-50
2022/01/10 10:27:42;;;;;;;16.30;12.70;;;;;;;3.76;100.00;100678.25;5022044;28;20247;-50
2022/01/10 10:30:29;;;;;;;12.53;11.23;;;;;;;3.73;100.00;100682.41;5017293;28;20190;-50
2022/01/10 10:33:14;;;;;;;13.63;12.20;;;;;;;3.71;100.00;100686.63;5022722;28;20203;-50
2022/01/10 10:35:41;;;;;;;11.87;10.67;;;;;;;3.74;100.00;100682.47;5018439;28;20270;-50
2022/01/10 10:38:07;;;;;;;12.93;11.63;;;;;;;3.84;100.00;100686.13;5025298;28;20294;-49
2022/01/10 10:40:39;;;;;;;13.63;12.27;;;;;;;3.95;100.00;100699.19;5012962;28;20734;-50
2022/01/10 10:43:07;;;;;;;12.53;11.33;;;;;;;4.07;100.00;100701.19;5022668;28;20214;-49
2022/01/10 10:45:32;;;;;;;12.60;11.30;;;;;;;4.21;100.00;100701.53;5019059;28;20202;-50
2022/01/10 10:47:59;;;;;;;14.87;12.33;;;;;;;4.35;100.00;100697.59;5016013;28;20215;-50
2022/01/10 10:50:28;;;;;;;16.37;14.70;;;;;;;4.48;100.00;100703.00;5014975;28;20196;-50
2022/01/10 10:52:54;;;;;;;14.47;13.03;;;;;;;4.53;100.00;100699.69;5020688;28;20183;-50
2022/01/10 10:55:19;;;;;;;16.07;14.23;;;;;;;4.52;100.00;100705.66;5021400;28;20215;-50
2022/01/10 10:57:45;;;;;;;13.90;12.50;;;;;;;4.49;100.00;100710.69;5023664;28;20242;-51
2022/01/10 11:00:15;;;;;;;13.23;10.47;;;;;;;4.48;100.00;100713.25;5021449;28;20203;-50
2022/01/10 11:02:40;;;;;;;13.60;11.20;;;;;;;4.48;100.00;100714.09;5022073;28;20223;-51
2022/01/10 11:05:07;;;;;;;10.43;9.27;;;;;;;4.50;100.00;100715.00;5022351;28;20228;-50
2022/01/10 11:07:35;;;;;;;10.23;8.50;;;;;;;4.52;100.00;100721.03;5025277;28;20207;-50
2022/01/10 11:10:05;;;;;;;10.57;8.67;;;;;;;4.52;100.00;100718.47;5023905;28;20187;-50
2022/01/10 11:12:34;;;;;;;10.40;9.40;;;;;;;4.45;100.00;100724.31;5018797;28;20195;-50
2022/01/10 11:14:59;;;;;;;14.07;9.90;;;;;;;4.48;100.00;100724.34;5017160;28;20222;-50
2022/01/10 11:17:26;;;;;;;14.50;10.57;;;;;;;4.55;100.00;100727.91;5023357;28;20209;-50
2022/01/10 11:20:09;;;;;;;11.03;9.83;;;;;;;4.66;100.00;100734.19;5024314;28;20193;-50
2022/01/10 11:22:40;;;;;;;16.43;13.77;;;;;;;4.74;100.00;100734.34;5021005;28;20688;-50
2022/01/10 11:25:26;;;;;;;13.70;11.67;;;;;;;4.76;100.00;100740.38;5020549;28;20576;-50
2022/01/10 11:27:57;;;;;;;12.37;11.07;;;;;;;4.83;100.00;100742.22;5021723;28;20211;-50
2022/01/10 11:30:33;;;;;;;12.30;11.10;;;;;;;4.88;100.00;100748.34;5020698;28;20184;-50